Time;durP1;ratioP1;P1;durP2;ratioP2;P2;SDS_P1;SDS_P2;PMS_P1;PMS_P2;Temp;Humidity;BMP_temperature;BMP_pressure;BME280_temperature;BME280_humidity;BME280_pressure;Samples;Min_cycle;Max_cycle;Signal;HPM_P1;HPM_P2
2023/08/14 00:01:17;;;;;;;5.53;3.83;;;20.40;99.90;;;;;;5094121;28;20481;-71
2023/08/14 00:03:43;;;;;;;5.97;3.90;;;20.40;99.90;;;;;;5094052;28;20173;-72
2023/08/14 00:06:08;;;;;;;4.70;3.93;;;20.30;99.90;;;;;;5093286;28;20192;-71
2023/08/14 00:08:34;;;;;;;5.30;4.30;;;20.30;99.90;;;;;;5061963;28;20229;-72
2023/08/14 00:11:00;;;;;;;9.80;5.03;;;20.30;99.90;;;;;;5093533;28;20209;-72
2023/08/14 00:13:25;;;;;;;5.40;4.60;;;20.30;99.90;;;;;;5093076;28;20176;-72
2023/08/14 00:15:51;;;;;;;3.90;3.60;;;20.30;99.90;;;;;;5093884;28;20194;-69
2023/08/14 00:18:17;;;;;;;7.10;3.30;;;20.20;99.90;;;;;;5093427;28;20210;-70
2023/08/14 00:20:44;;;;;;;6.27;3.90;;;20.20;99.90;;;;;;5080909;28;20179;-70
2023/08/14 00:23:10;;;;;;;5.70;4.27;;;20.20;99.90;;;;;;5060652;28;20411;-69
2023/08/14 00:25:35;;;;;;;3.87;3.47;;;20.20;99.90;;;;;;5089984;28;20423;-69
2023/08/14 00:28:01;;;;;;;4.33;3.93;;;20.20;99.90;;;;;;5091369;28;20192;-69
2023/08/14 00:30:27;;;;;;;5.10;3.97;;;20.10;99.90;;;;;;5093406;28;20178;-70
2023/08/14 00:32:52;;;;;;;5.87;4.33;;;20.10;99.90;;;;;;5083785;28;20292;-70
2023/08/14 00:35:18;;;;;;;7.07;4.87;;;20.00;99.90;;;;;;5093482;28;20647;-70
2023/08/14 00:37:45;;;;;;;5.20;4.27;;;20.10;99.90;;;;;;5093822;28;20175;-70
2023/08/14 00:40:13;;;;;;;10.03;4.77;;;20.10;99.90;;;;;;5092333;28;20170;-70
2023/08/14 00:42:40;;;;;;;5.80;4.87;;;20.10;99.90;;;;;;5093374;28;20416;-70
2023/08/14 00:45:07;;;;;;;4.97;4.40;;;20.00;99.90;;;;;;5093298;28;20405;-70
2023/08/14 00:47:35;;;;;;;5.20;4.67;;;20.00;99.90;;;;;;5092991;28;20505;-70
2023/08/14 00:50:05;;;;;;;5.00;4.23;;;20.10;99.90;;;;;;5082796;28;20942;-70
2023/08/14 00:52:37;;;;;;;4.63;4.23;;;20.00;99.90;;;;;;5093285;28;20420;-70
2023/08/14 00:55:07;;;;;;;4.00;3.60;;;20.00;99.90;;;;;;5089657;28;20411;-70
2023/08/14 00:57:34;;;;;;;4.37;3.97;;;20.00;99.90;;;;;;5074817;28;20519;-70
2023/08/14 01:00:02;;;;;;;4.10;3.70;;;20.00;99.90;;;;;;5084510;28;20478;-72
2023/08/14 01:02:29;;;;;;;4.70;4.10;;;20.00;99.90;;;;;;5092995;28;20893;-70
2023/08/14 01:04:54;;;;;;;6.17;4.07;;;20.10;99.90;;;;;;5092859;28;20472;-70
2023/08/14 01:07:20;;;;;;;5.20;4.03;;;20.00;99.90;;;;;;5092484;28;20445;-70
2023/08/14 01:09:48;;;;;;;4.43;3.83;;;20.00;99.90;;;;;;5092825;28;20197;-70
2023/08/14 01:12:38;;;;;;;5.47;4.50;;;19.90;99.90;;;;;;5093086;28;20588;-70
2023/08/14 01:15:10;;;;;;;4.50;4.10;;;19.90;99.90;;;;;;5091955;28;20911;-70
2023/08/14 01:17:38;;;;;;;4.10;3.80;;;19.90;99.90;;;;;;5092344;28;20406;-70
2023/08/14 01:20:05;;;;;;;6.43;4.60;;;19.90;99.90;;;;;;5092013;28;20421;-70
2023/08/14 01:23:05;;;;;;;4.70;4.30;;;19.90;99.90;;;;;;5093527;28;20876;-70
2023/08/14 01:25:33;;;;;;;5.50;4.10;;;19.90;99.90;;;;;;5092231;28;20430;-70
2023/08/14 01:28:00;;;;;;;5.00;4.53;;;19.80;99.90;;;;;;5089321;28;20448;-71
2023/08/14 01:30:26;;;;;;;4.30;4.00;;;19.80;99.90;;;;;;5093240;28;20409;-71
2023/08/14 01:32:52;;;;;;;5.90;5.30;;;19.80;99.90;;;;;;5083625;28;20412;-71
2023/08/14 01:35:19;;;;;;;5.73;4.67;;;19.80;99.90;;;;;;5068646;28;20732;-70
2023/08/14 01:38:07;;;;;;;5.00;4.57;;;19.80;99.90;;;;;;5092225;28;20499;-70
2023/08/14 01:41:00;;;;;;;6.63;4.60;;;19.80;99.90;;;;;;5084083;28;20408;-71
2023/08/14 01:43:36;;;;;;;5.80;3.93;;;19.70;99.90;;;;;;5086473;28;20432;-71
2023/08/14 01:46:05;;;;;;;5.30;4.80;;;19.70;99.90;;;;;;5083455;28;20406;-70
2023/08/14 01:48:31;;;;;;;5.73;4.37;;;19.70;99.90;;;;;;5089795;28;20430;-70
2023/08/14 01:50:58;;;;;;;5.10;4.70;;;19.60;99.90;;;;;;5092103;28;20502;-69
2023/08/14 01:53:24;;;;;;;8.10;7.40;;;19.60;99.90;;;;;;5092065;28;20515;-69
2023/08/14 01:55:49;;;;;;;18.30;16.37;;;19.70;99.90;;;;;;5092078;28;20922;-69
2023/08/14 01:58:15;;;;;;;6.60;5.50;;;19.70;99.90;;;;;;5091778;28;20203;-69
2023/08/14 02:00:41;;;;;;;4.90;4.50;;;19.60;99.90;;;;;;5088038;28;20186;-69
2023/08/14 02:03:06;;;;;;;6.30;5.33;;;19.60;99.90;;;;;;5084490;28;20581;-69
2023/08/14 02:05:32;;;;;;;4.90;4.50;;;19.60;99.90;;;;;;5092158;28;20180;-69
2023/08/14 02:07:57;;;;;;;4.60;4.23;;;19.60;99.90;;;;;;5090272;28;20675;-69
2023/08/14 02:10:23;;;;;;;7.00;6.00;;;19.50;99.90;;;;;;5091803;28;20245;-69
2023/08/14 02:12:49;;;;;;;5.73;4.00;;;19.60;99.90;;;;;;5091389;28;20647;-69
2023/08/14 02:15:14;;;;;;;6.00;4.83;;;19.50;99.90;;;;;;5091978;28;20176;-69
2023/08/14 02:17:40;;;;;;;5.10;4.60;;;19.50;99.90;;;;;;5083154;28;20252;-70
2023/08/14 02:20:07;;;;;;;4.87;4.43;;;19.40;99.90;;;;;;5089203;28;20176;-69
2023/08/14 02:22:32;;;;;;;9.30;4.90;;;19.40;99.90;;;;;;5094272;28;20183;-70
2023/08/14 02:24:58;;;;;;;5.60;5.10;;;19.30;99.90;;;;;;5096247;28;20428;-70
2023/08/14 02:27:24;;;;;;;5.13;4.73;;;19.30;99.90;;;;;;5094418;28;20507;-70
2023/08/14 02:29:49;;;;;;;5.13;4.27;;;19.20;99.90;;;;;;5091676;28;20277;-70
2023/08/14 02:32:15;;;;;;;4.57;4.10;;;19.30;99.90;;;;;;5091891;28;20212;-70
2023/08/14 02:34:46;;;;;;;4.30;3.90;;;19.30;99.90;;;;;;5088256;28;20180;-70
2023/08/14 02:37:13;;;;;;;5.57;3.87;;;19.30;99.90;;;;;;5090455;28;20181;-70
2023/08/14 02:39:39;;;;;;;4.60;4.20;;;19.30;99.90;;;;;;5095128;28;20971;-69
2023/08/14 02:42:04;;;;;;;4.00;3.60;;;19.20;99.90;;;;;;5095437;28;20408;-69
2023/08/14 02:44:30;;;;;;;5.97;4.87;;;19.10;99.90;;;;;;5095432;28;20699;-69
2023/08/14 02:46:57;;;;;;;7.30;4.67;;;19.20;99.90;;;;;;5089884;28;20482;-69
2023/08/14 02:49:22;;;;;;;4.33;4.03;;;19.10;99.90;;;;;;5093734;28;20551;-70
2023/08/14 02:51:48;;;;;;;4.33;4.03;;;19.10;99.90;;;;;;5094077;28;20421;-70
2023/08/14 02:54:14;;;;;;;3.93;3.63;;;19.00;99.90;;;;;;5090686;28;20169;-70
2023/08/14 02:56:39;;;;;;;4.40;4.00;;;19.00;99.90;;;;;;5092768;28;20177;-70
2023/08/14 02:59:05;;;;;;;4.10;3.80;;;18.90;99.90;;;;;;5089620;28;20209;-71
2023/08/14 03:01:30;;;;;;;7.47;4.30;;;18.90;99.90;;;;;;5093419;28;20181;-70
2023/08/14 03:03:56;;;;;;;3.77;3.47;;;18.90;99.90;;;;;;5095865;28;20167;-70
2023/08/14 03:06:22;;;;;;;4.13;3.80;;;18.90;99.90;;;;;;5098020;28;20210;-70
2023/08/14 03:08:49;;;;;;;5.50;4.87;;;18.90;99.90;;;;;;5097934;28;20201;-70
2023/08/14 03:11:15;;;;;;;5.17;4.10;;;18.90;99.90;;;;;;5095636;28;20626;-69
2023/08/14 03:13:41;;;;;;;4.00;3.70;;;18.80;99.90;;;;;;5092131;28;20466;-70
2023/08/14 03:16:06;;;;;;;5.10;3.90;;;18.80;99.90;;;;;;5085098;28;20207;-70
2023/08/14 03:18:32;;;;;;;3.83;3.53;;;18.80;99.90;;;;;;5094559;28;20219;-70
2023/08/14 03:20:57;;;;;;;3.53;3.23;;;18.80;99.90;;;;;;5094789;28;20638;-69
2023/08/14 03:23:23;;;;;;;4.10;3.80;;;18.80;99.90;;;;;;5093308;28;20182;-70
2023/08/14 03:25:48;;;;;;;5.23;4.73;;;18.70;99.90;;;;;;5094813;28;20618;-69
2023/08/14 03:28:14;;;;;;;4.53;4.13;;;18.70;99.90;;;;;;5094283;28;20205;-69
2023/08/14 03:30:41;;;;;;;5.00;4.60;;;18.60;99.90;;;;;;5094469;28;20261;-69
2023/08/14 03:33:07;;;;;;;6.00;4.20;;;18.70;99.90;;;;;;5089637;28;20175;-69
2023/08/14 03:35:33;;;;;;;4.27;3.87;;;18.60;99.90;;;;;;5092824;28;20418;-70
2023/08/14 03:37:58;;;;;;;5.17;4.67;;;18.50;99.90;;;;;;5090170;28;20189;-69
2023/08/14 03:40:24;;;;;;;4.70;4.30;;;18.50;99.90;;;;;;5091984;28;20768;-69
2023/08/14 03:42:50;;;;;;;6.13;5.63;;;18.40;99.90;;;;;;5084766;28;20182;-69
2023/08/14 03:45:15;;;;;;;5.37;4.97;;;18.40;99.90;;;;;;5079901;28;20508;-69
2023/08/14 03:47:41;;;;;;;5.30;4.80;;;18.40;99.90;;;;;;5091832;28;20539;-69
2023/08/14 03:50:07;;;;;;;7.37;5.13;;;18.50;99.90;;;;;;5087572;28;20221;-69
2023/08/14 03:52:33;;;;;;;5.37;4.90;;;18.40;99.90;;;;;;5091967;28;20175;-69
2023/08/14 03:54:58;;;;;;;5.13;4.67;;;18.40;99.90;;;;;;5094195;28;20415;-69
2023/08/14 03:57:24;;;;;;;5.23;4.80;;;18.30;99.90;;;;;;5091075;28;20665;-69
2023/08/14 03:59:49;;;;;;;4.70;4.30;;;18.30;99.90;;;;;;5093748;28;20199;-69
2023/08/14 04:02:15;;;;;;;4.50;4.20;;;18.30;99.90;;;;;;5093907;28;20661;-69
2023/08/14 04:04:40;;;;;;;5.40;4.90;;;18.40;99.90;;;;;;5093736;28;20225;-69
2023/08/14 04:07:06;;;;;;;4.60;4.20;;;18.30;99.90;;;;;;5091451;28;20164;-69
2023/08/14 04:09:32;;;;;;;7.10;5.00;;;18.30;99.90;;;;;;5091433;28;20202;-69
2023/08/14 04:11:57;;;;;;;12.10;6.43;;;18.30;99.90;;;;;;5093441;28;20176;-69
2023/08/14 04:14:23;;;;;;;5.00;4.60;;;18.30;99.90;;;;;;5088569;28;20171;-70
2023/08/14 04:16:49;;;;;;;6.07;5.07;;;18.30;99.90;;;;;;5093719;28;20284;-69
2023/08/14 04:19:18;;;;;;;5.10;4.70;;;18.40;99.90;;;;;;5089744;28;20465;-69
2023/08/14 04:21:43;;;;;;;4.83;4.00;;;18.40;99.90;;;;;;5087783;28;20924;-69
2023/08/14 04:24:10;;;;;;;4.73;4.33;;;18.40;99.90;;;;;;5091604;28;20410;-69
2023/08/14 04:26:36;;;;;;;5.30;4.30;;;18.40;99.90;;;;;;5091838;28;20182;-69
2023/08/14 04:29:06;;;;;;;7.97;4.73;;;18.40;99.90;;;;;;5093204;28;20441;-69
2023/08/14 04:31:35;;;;;;;5.20;4.80;;;18.40;99.90;;;;;;5093493;28;20406;-69
2023/08/14 04:34:01;;;;;;;4.43;4.03;;;18.40;99.90;;;;;;5093647;28;20416;-69
2023/08/14 04:36:27;;;;;;;10.73;4.97;;;18.40;99.90;;;;;;5091997;28;20472;-70
2023/08/14 04:38:53;;;;;;;8.67;4.57;;;18.40;99.90;;;;;;5093394;28;20975;-70
2023/08/14 04:41:18;;;;;;;8.97;5.20;;;18.50;99.90;;;;;;5092526;28;20461;-70
2023/08/14 04:43:44;;;;;;;4.80;4.10;;;18.50;99.90;;;;;;5087024;28;20171;-69
2023/08/14 04:46:11;;;;;;;5.10;4.70;;;18.50;99.90;;;;;;5093106;28;20423;-69
2023/08/14 04:48:37;;;;;;;4.77;4.37;;;18.60;99.90;;;;;;5092605;28;20214;-70
2023/08/14 04:51:05;;;;;;;8.03;5.77;;;18.70;99.90;;;;;;5090810;28;20450;-70
2023/08/14 04:53:31;;;;;;;6.90;5.07;;;18.80;99.90;;;;;;5082650;28;20598;-71
2023/08/14 04:55:56;;;;;;;4.37;3.97;;;18.80;99.90;;;;;;5093205;28;20495;-69
2023/08/14 04:58:22;;;;;;;5.53;4.83;;;18.90;99.90;;;;;;5092515;28;20206;-70
2023/08/14 05:00:47;;;;;;;4.67;4.27;;;18.90;99.90;;;;;;5084321;28;20166;-69
2023/08/14 05:03:13;;;;;;;4.43;4.07;;;19.00;99.90;;;;;;5093380;28;20170;-71
2023/08/14 05:05:39;;;;;;;5.90;5.40;;;19.00;99.90;;;;;;5092661;28;20534;-70
2023/08/14 05:08:05;;;;;;;6.07;4.40;;;19.10;99.90;;;;;;5091498;28;20205;-69
2023/08/14 05:10:32;;;;;;;5.10;4.17;;;19.20;99.90;;;;;;5090432;28;20670;-69
2023/08/14 05:12:58;;;;;;;4.70;4.30;;;19.20;99.90;;;;;;5092472;28;20266;-71
2023/08/14 05:15:23;;;;;;;5.23;4.10;;;19.30;99.90;;;;;;5086755;28;20965;-69
2023/08/14 05:17:49;;;;;;;4.13;3.73;;;19.40;99.90;;;;;;5090154;28;20726;-70
2023/08/14 05:20:15;;;;;;;4.40;4.00;;;19.50;99.90;;;;;;5080559;28;20181;-69
2023/08/14 05:22:42;;;;;;;5.33;4.40;;;19.60;99.90;;;;;;5091388;28;20652;-70
2023/08/14 05:25:09;;;;;;;3.97;3.60;;;19.70;99.90;;;;;;5088755;28;20176;-70
2023/08/14 05:27:38;;;;;;;6.93;4.43;;;19.80;99.90;;;;;;5085952;28;20458;-70
2023/08/14 05:30:05;;;;;;;6.20;4.33;;;20.00;99.90;;;;;;5092659;28;20417;-70
2023/08/14 05:32:30;;;;;;;5.27;3.97;;;20.40;99.90;;;;;;5086171;28;20457;-70
2023/08/14 05:34:56;;;;;;;5.20;3.80;;;20.60;99.90;;;;;;5090435;28;20453;-70
2023/08/14 05:37:21;;;;;;;3.60;3.30;;;20.90;99.90;;;;;;5082872;28;20222;-71
2023/08/14 05:39:47;;;;;;;6.40;3.93;;;21.40;99.90;;;;;;5083533;28;20199;-71
2023/08/14 05:42:15;;;;;;;4.93;3.30;;;21.40;99.90;;;;;;5091983;28;20544;-70
2023/08/14 05:44:40;;;;;;;5.03;4.17;;;21.80;99.90;;;;;;5091851;28;20288;-70
2023/08/14 05:47:06;;;;;;;4.70;3.60;;;21.90;99.90;;;;;;5092170;28;20495;-70
2023/08/14 05:49:32;;;;;;;5.57;3.30;;;22.40;99.90;;;;;;5091822;28;20655;-70
2023/08/14 05:51:57;;;;;;;5.90;3.20;;;22.60;99.90;;;;;;5088811;28;20186;-71
2023/08/14 05:54:23;;;;;;;7.10;4.17;;;23.20;99.90;;;;;;5092111;28;20169;-69
2023/08/14 05:56:50;;;;;;;8.57;4.10;;;23.70;99.90;;;;;;5091907;28;20183;-70
2023/08/14 05:59:16;;;;;;;6.13;3.67;;;23.60;99.90;;;;;;5092171;28;20655;-70
2023/08/14 06:01:41;;;;;;;4.50;3.97;;;23.50;99.90;;;;;;5092834;28;20473;-70
2023/08/14 06:04:07;;;;;;;4.10;3.40;;;23.60;99.90;;;;;;5092398;28;20174;-71
2023/08/14 06:06:33;;;;;;;4.30;3.63;;;23.80;99.90;;;;;;5089467;28;20197;-70
2023/08/14 06:08:58;;;;;;;5.70;4.33;;;24.20;99.90;;;;;;5085104;28;20660;-70
2023/08/14 06:11:24;;;;;;;6.67;3.07;;;24.70;99.90;;;;;;5087889;28;20216;-69
2023/08/14 06:13:50;;;;;;;3.90;3.30;;;25.00;99.90;;;;;;5091533;28;20180;-70
2023/08/14 06:16:15;;;;;;;5.30;3.73;;;25.40;99.90;;;;;;5085071;28;20665;-70
2023/08/14 06:18:41;;;;;;;3.97;3.60;;;25.50;99.90;;;;;;5090268;28;20217;-70
2023/08/14 06:21:06;;;;;;;4.10;3.40;;;25.40;99.90;;;;;;5086981;28;20513;-70
2023/08/14 06:23:32;;;;;;;3.70;3.40;;;25.50;99.90;;;;;;5091843;28;20234;-70
2023/08/14 06:25:58;;;;;;;4.10;3.23;;;25.70;99.90;;;;;;5086434;28;20534;-70
2023/08/14 06:28:23;;;;;;;3.20;2.93;;;26.00;99.90;;;;;;5090852;28;20185;-70
2023/08/14 06:30:49;;;;;;;5.40;3.37;;;26.30;99.90;;;;;;5091389;28;20173;-69
2023/08/14 06:33:15;;;;;;;5.50;3.50;;;26.40;99.90;;;;;;5085530;28;20170;-70
2023/08/14 06:35:40;;;;;;;3.67;2.90;;;26.50;99.90;;;;;;5090708;28;20209;-70
2023/08/14 06:38:06;;;;;;;4.30;3.77;;;26.50;99.90;;;;;;5091277;28;20682;-70
2023/08/14 06:40:31;;;;;;;4.30;3.17;;;27.10;99.90;;;;;;5091449;28;20177;-71
2023/08/14 06:42:57;;;;;;;3.97;3.30;;;26.70;99.90;;;;;;5090388;28;20239;-70
2023/08/14 06:45:23;;;;;;;10.33;3.23;;;27.10;99.90;;;;;;5091794;28;20162;-71
2023/08/14 06:47:48;;;;;;;5.83;3.30;;;27.90;99.90;;;;;;5091706;28;20192;-71
2023/08/14 06:50:14;;;;;;;3.60;2.90;;;27.80;99.90;;;;;;5091718;28;20608;-70
2023/08/14 06:52:40;;;;;;;5.20;3.60;;;28.00;99.90;;;;;;5084859;28;20174;-69
2023/08/14 06:55:06;;;;;;;5.60;3.00;;;28.00;99.90;;;;;;5081209;28;20166;-69
2023/08/14 06:57:31;;;;;;;5.23;3.50;;;28.50;99.90;;;;;;5085673;28;20256;-70
2023/08/14 06:59:57;;;;;;;5.60;4.30;;;28.70;99.90;;;;;;5089716;28;20512;-70
2023/08/14 07:02:23;;;;;;;4.00;3.40;;;28.40;99.90;;;;;;5091100;28;20165;-70
2023/08/14 07:04:49;;;;;;;5.23;2.70;;;28.80;99.90;;;;;;5083245;28;20639;-71
2023/08/14 07:07:16;;;;;;;3.63;2.40;;;29.60;99.90;;;;;;5091678;28;20169;-71
2023/08/14 07:09:41;;;;;;;5.30;2.83;;;29.40;99.90;;;;;;5076168;28;20230;-71
2023/08/14 07:12:07;;;;;;;3.50;2.67;;;28.80;99.90;;;;;;5091045;28;20494;-72
2023/08/14 07:14:33;;;;;;;4.70;2.43;;;29.40;99.90;;;;;;5088771;28;20720;-71
2023/08/14 07:16:58;;;;;;;3.30;2.47;;;30.10;99.90;;;;;;5090669;28;20228;-71
2023/08/14 07:19:24;;;;;;;6.00;3.17;;;30.10;99.90;;;;;;5076694;28;20236;-70
2023/08/14 07:21:49;;;;;;;4.60;2.40;;;29.30;99.90;;;;;;5089533;28;20176;-71
2023/08/14 07:24:15;;;;;;;7.00;2.77;;;29.20;99.90;;;;;;5091643;28;20174;-69
2023/08/14 07:26:41;;;;;;;6.30;2.97;;;29.50;99.90;;;;;;5087774;28;20178;-73
2023/08/14 07:29:07;;;;;;;2.77;2.53;;;29.70;99.90;;;;;;5092671;28;20201;-72
2023/08/14 07:31:32;;;;;;;2.97;2.70;;;29.50;99.90;;;;;;5094937;28;20685;-71
2023/08/14 07:33:58;;;;;;;4.73;2.33;;;28.70;99.90;;;;;;5094738;28;20411;-71
2023/08/14 07:36:24;;;;;;;2.73;2.30;;;28.30;99.90;;;;;;5093026;28;20174;-72
2023/08/14 07:38:49;;;;;;;4.27;2.60;;;28.90;99.90;;;;;;5095824;28;20185;-72
2023/08/14 07:41:15;;;;;;;5.47;2.70;;;31.20;99.90;;;;;;5091942;28;20170;-72
2023/08/14 07:43:40;;;;;;;3.57;2.80;;;31.90;99.90;;;;;;5085911;28;20194;-72
2023/08/14 07:46:07;;;;;;;3.97;2.33;;;32.40;99.90;;;;;;5094317;28;20223;-72
2023/08/14 07:48:33;;;;;;;3.70;2.40;;;30.70;99.90;;;;;;5088898;28;20674;-72
2023/08/14 07:50:59;;;;;;;3.80;2.33;;;31.20;99.90;;;;;;5086676;28;20510;-72
2023/08/14 07:53:24;;;;;;;5.70;3.00;;;30.70;99.90;;;;;;5088001;28;20554;-72
2023/08/14 07:55:50;;;;;;;4.00;3.60;;;30.10;99.90;;;;;;5094320;28;20182;-72
2023/08/14 07:58:17;;;;;;;3.40;2.60;;;30.90;99.90;;;;;;5080316;28;20205;-72
2023/08/14 08:00:43;;;;;;;3.33;2.20;;;31.60;99.90;;;;;;5094423;28;20658;-72
2023/08/14 08:03:08;;;;;;;5.60;2.30;;;31.90;99.90;;;;;;5092853;28;20439;-72
2023/08/14 08:05:34;;;;;;;3.67;2.30;;;31.60;99.90;;;;;;5093906;28;20834;-72
2023/08/14 08:08:01;;;;;;;2.33;1.83;;;30.30;99.90;;;;;;5094615;28;20189;-72
2023/08/14 08:10:27;;;;;;;2.50;1.77;;;29.30;99.90;;;;;;5084672;28;20531;-71
2023/08/14 08:12:52;;;;;;;4.10;2.30;;;29.40;99.90;;;;;;5094538;28;20507;-72
2023/08/14 08:15:18;;;;;;;3.80;2.20;;;30.20;99.90;;;;;;5094426;28;20479;-73
2023/08/14 08:17:44;;;;;;;2.33;1.90;;;30.60;99.90;;;;;;5085816;28;20177;-72
2023/08/14 08:20:10;;;;;;;4.77;2.07;;;30.70;99.90;;;;;;5092219;28;20205;-72
2023/08/14 08:22:36;;;;;;;2.30;1.90;;;29.30;99.90;;;;;;5086469;28;20204;-72
2023/08/14 08:25:01;;;;;;;4.37;2.30;;;30.00;99.90;;;;;;5089708;28;20451;-72
2023/08/14 08:27:30;;;;;;;3.40;2.17;;;30.00;99.90;;;;;;5093399;28;20196;-72
2023/08/14 08:29:56;;;;;;;4.90;2.23;;;30.70;99.90;;;;;;5093568;28;20227;-71
2023/08/14 08:32:21;;;;;;;4.03;2.00;;;29.70;99.90;;;;;;5093574;28;20411;-71
2023/08/14 08:34:47;;;;;;;4.67;2.33;;;29.50;99.90;;;;;;5091111;28;20178;-71
2023/08/14 08:37:13;;;;;;;2.13;1.90;;;30.10;99.90;;;;;;5092092;28;20173;-71
2023/08/14 08:39:39;;;;;;;2.50;1.93;;;29.70;99.90;;;;;;5084891;28;20220;-71
2023/08/14 08:42:09;;;;;;;2.60;2.27;;;29.00;99.90;;;;;;5093533;28;20415;-71
2023/08/14 08:44:38;;;;;;;3.00;1.90;;;29.80;99.90;;;;;;5093802;28;20178;-71
2023/08/14 08:47:09;;;;;;;6.47;2.10;;;30.30;99.90;;;;;;5095075;28;20482;-71
2023/08/14 08:49:35;;;;;;;4.20;2.73;;;30.30;99.90;;;;;;5088454;28;20438;-71
2023/08/14 08:52:04;;;;;;;3.27;2.40;;;30.00;99.90;;;;;;5095214;28;20463;-71
2023/08/14 08:54:31;;;;;;;3.37;2.17;;;30.00;99.90;;;;;;5090553;28;20536;-71
2023/08/14 08:56:57;;;;;;;6.13;2.23;;;31.20;99.90;;;;;;5091619;28;20407;-71
2023/08/14 08:59:23;;;;;;;3.00;2.07;;;30.90;98.80;;;;;;5085713;28;20464;-71
2023/08/14 09:01:49;;;;;;;2.77;2.13;;;30.90;99.70;;;;;;5087548;28;20435;-71
2023/08/14 09:04:15;;;;;;;2.80;1.63;;;31.20;99.90;;;;;;5093508;28;20407;-71
2023/08/14 09:06:41;;;;;;;2.97;2.70;;;30.30;97.90;;;;;;5092627;28;20403;-71
2023/08/14 09:09:10;;;;;;;2.73;2.03;;;30.10;99.90;;;;;;5088445;28;20949;-71
2023/08/14 09:11:36;;;;;;;4.30;2.20;;;29.90;99.90;;;;;;5094200;28;20218;-71
2023/08/14 09:14:02;;;;;;;3.37;1.90;;;29.60;99.90;;;;;;5090792;28;20823;-71
2023/08/14 09:16:28;;;;;;;3.70;1.93;;;30.40;98.50;;;;;;5067180;28;20205;-71
2023/08/14 09:18:58;;;;;;;2.77;2.07;;;31.10;97.90;;;;;;5087731;28;20235;-71
2023/08/14 09:21:25;;;;;;;2.10;1.80;;;30.40;96.00;;;;;;5092956;28;20400;-71
2023/08/14 09:23:51;;;;;;;8.13;2.30;;;30.70;98.00;;;;;;5072993;28;20854;-71
2023/08/14 09:26:18;;;;;;;4.93;1.97;;;30.50;97.80;;;;;;5092101;28;20425;-71
2023/08/14 09:28:44;;;;;;;4.07;2.07;;;29.70;98.10;;;;;;5092780;28;20435;-71
2023/08/14 09:31:12;;;;;;;3.97;2.33;;;29.50;99.20;;;;;;5092685;28;20996;-71
2023/08/14 09:33:43;;;;;;;3.00;2.13;;;29.90;98.40;;;;;;5092751;28;20177;-72
2023/08/14 09:36:09;;;;;;;6.90;2.30;;;29.50;98.10;;;;;;5064121;28;20423;-71
2023/08/14 09:38:36;;;;;;;2.80;2.03;;;29.60;98.60;;;;;;5075454;28;20455;-71
2023/08/14 09:41:02;;;;;;;2.87;2.13;;;30.40;97.50;;;;;;5090912;28;20535;-71
2023/08/14 09:43:29;;;;;;;4.53;2.00;;;29.80;99.30;;;;;;5092394;28;20438;-71
2023/08/14 09:46:00;;;;;;;2.37;1.63;;;29.80;99.70;;;;;;5089266;28;20169;-71
2023/08/14 09:48:46;;;;;;;5.03;1.87;;;30.00;98.80;;;;;;5092387;28;20785;-71
2023/08/14 09:51:13;;;;;;;2.10;1.97;;;30.00;97.40;;;;;;5084347;28;20407;-71
2023/08/14 09:53:56;;;;;;;3.00;2.27;;;29.90;99.90;;;;;;5085726;28;20933;-71
2023/08/14 09:56:22;;;;;;;1.90;1.70;;;30.40;97.80;;;;;;5092370;28;20423;-71
2023/08/14 09:58:49;;;;;;;3.03;2.07;;;30.80;98.40;;;;;;5087840;28;20459;-71
2023/08/14 10:01:19;;;;;;;2.57;1.87;;;30.70;96.30;;;;;;5081650;28;20817;-71
2023/08/14 10:03:47;;;;;;;3.17;1.63;;;31.60;95.00;;;;;;5092304;28;20398;-72
2023/08/14 10:06:15;;;;;;;2.80;2.20;;;31.90;93.10;;;;;;5092374;28;20901;-71
2023/08/14 10:08:44;;;;;;;3.07;2.07;;;31.10;96.20;;;;;;5088241;28;20789;-72
2023/08/14 10:11:13;;;;;;;2.40;2.20;;;30.80;94.40;;;;;;5092368;28;20418;-72
2023/08/14 10:13:44;;;;;;;3.53;2.50;;;30.20;95.80;;;;;;5081100;28;20416;-72
2023/08/14 10:16:14;;;;;;;5.93;1.93;;;29.90;96.40;;;;;;5091597;28;20416;-73
2023/08/14 10:18:41;;;;;;;2.23;2.00;;;30.20;96.30;;;;;;5091812;28;20462;-72
2023/08/14 10:21:11;;;;;;;5.27;2.03;;;29.90;95.90;;;;;;5092333;28;20404;-71
2023/08/14 10:23:37;;;;;;;3.17;2.10;;;29.40;96.10;;;;;;5092383;28;20763;-71
2023/08/14 10:26:05;;;;;;;3.80;2.00;;;29.20;98.00;;;;;;5078624;28;20468;-72
2023/08/14 10:28:32;;;;;;;2.37;1.90;;;29.30;97.80;;;;;;5091797;28;20428;-72
2023/08/14 10:30:59;;;;;;;2.40;1.83;;;29.50;96.90;;;;;;5091137;28;20451;-73
2023/08/14 10:33:26;;;;;;;3.73;2.10;;;29.60;98.40;;;;;;5092449;28;20414;-72
2023/08/14 10:35:54;;;;;;;2.73;1.80;;;29.70;97.70;;;;;;5093248;28;20699;-72
2023/08/14 10:38:20;;;;;;;2.50;2.00;;;29.90;97.20;;;;;;5093508;28;20454;-72
2023/08/14 10:40:53;;;;;;;3.47;2.10;;;29.70;97.70;;;;;;5093884;28;20427;-72
2023/08/14 10:43:25;;;;;;;1.60;1.50;;;29.00;96.60;;;;;;5084136;28;20493;-72
2023/08/14 10:45:52;;;;;;;2.53;2.30;;;29.50;96.60;;;;;;5084631;28;20407;-72
2023/08/14 10:48:19;;;;;;;3.50;2.00;;;29.40;97.50;;;;;;5090201;28;20439;-72
2023/08/14 10:51:15;;;;;;;1.97;1.67;;;29.20;97.00;;;;;;5091961;28;20407;-72
2023/08/14 10:53:41;;;;;;;3.50;2.57;;;29.20;97.10;;;;;;5081137;28;20430;-75
2023/08/14 10:56:07;;;;;;;2.47;1.83;;;29.20;97.30;;;;;;5092082;28;20403;-72
2023/08/14 10:58:35;;;;;;;2.33;2.13;;;29.20;96.50;;;;;;5096098;28;20197;-73
2023/08/14 11:01:11;;;;;;;5.07;3.10;;;29.30;96.60;;;;;;5096083;28;20419;-71
2023/08/14 11:04:02;;;;;;;4.10;2.00;;;29.40;97.00;;;;;;5095629;28;20746;-70
2023/08/14 11:06:45;;;;;;;3.40;2.13;;;29.30;97.10;;;;;;5092708;28;20404;-70
2023/08/14 11:09:10;;;;;;;2.67;2.00;;;29.50;96.60;;;;;;5096790;28;20492;-75
2023/08/14 11:11:43;;;;;;;2.93;1.97;;;29.30;97.10;;;;;;5092681;28;20435;-71
2023/08/14 11:14:09;;;;;;;2.30;1.87;;;29.30;96.30;;;;;;5096698;28;20203;-71
2023/08/14 11:16:35;;;;;;;3.50;1.93;;;29.60;97.30;;;;;;5087389;28;20419;-72
2023/08/14 11:19:01;;;;;;;4.93;2.00;;;29.70;96.30;;;;;;5091497;28;20471;-71
2023/08/14 11:21:27;;;;;;;2.93;1.83;;;29.40;96.30;;;;;;5096624;28;20539;-72
2023/08/14 11:23:52;;;;;;;4.30;2.33;;;29.50;97.30;;;;;;5099547;28;20408;-72
2023/08/14 11:26:19;;;;;;;3.63;1.83;;;29.60;97.40;;;;;;5066296;28;20625;-72
2023/08/14 11:28:44;;;;;;;2.37;2.10;;;29.20;97.70;;;;;;5097333;28;20651;-72
2023/08/14 11:31:12;;;;;;;3.70;2.43;;;29.20;97.90;;;;;;5097510;28;20456;-72
2023/08/14 11:33:37;;;;;;;2.20;2.00;;;29.50;98.10;;;;;;5088416;28;20645;-72
2023/08/14 11:36:07;;;;;;;3.67;1.87;;;29.40;97.20;;;;;;5084099;28;20459;-73
2023/08/14 11:38:33;;;;;;;2.33;1.73;;;29.40;96.90;;;;;;5095002;28;20216;-71
2023/08/14 11:40:58;;;;;;;3.63;1.83;;;29.50;96.50;;;;;;5093176;28;20870;-71
2023/08/14 11:43:24;;;;;;;3.07;1.77;;;29.40;97.10;;;;;;5096052;28;20671;-71
2023/08/14 11:45:50;;;;;;;2.07;1.70;;;29.40;96.70;;;;;;5095416;28;20166;-71
2023/08/14 11:48:16;;;;;;;2.50;1.83;;;29.40;96.50;;;;;;5089970;28;20216;-71
2023/08/14 11:50:47;;;;;;;3.90;2.30;;;29.50;96.30;;;;;;5091467;28;20484;-71
2023/08/14 11:53:13;;;;;;;3.93;3.53;;;29.50;96.50;;;;;;5094943;28;20201;-71
2023/08/14 11:55:39;;;;;;;3.50;2.10;;;29.50;97.10;;;;;;5091318;28;20415;-72
2023/08/14 11:58:04;;;;;;;3.50;2.20;;;29.60;97.60;;;;;;5088509;28;20487;-71
2023/08/14 12:00:30;;;;;;;2.17;1.90;;;29.40;97.90;;;;;;5096081;28;20480;-72
2023/08/14 12:02:56;;;;;;;5.40;2.90;;;29.40;97.90;;;;;;5096008;28;20180;-71
2023/08/14 12:05:21;;;;;;;5.27;2.60;;;29.50;97.70;;;;;;5086874;28;20239;-77
2023/08/14 12:07:47;;;;;;;2.93;2.17;;;29.60;97.30;;;;;;5090628;28;20165;-71
2023/08/14 12:10:16;;;;;;;2.93;2.50;;;29.50;97.40;;;;;;5080937;28;20166;-70
2023/08/14 12:12:42;;;;;;;2.60;2.40;;;29.60;97.40;;;;;;5086249;28;20551;-70
2023/08/14 12:15:08;;;;;;;4.47;4.07;;;29.60;97.70;;;;;;5091506;28;20411;-70
2023/08/14 12:17:35;;;;;;;3.83;3.00;;;29.70;97.80;;;;;;5085733;28;20444;-70
2023/08/14 12:20:03;;;;;;;6.97;6.40;;;29.70;97.70;;;;;;5087841;28;20454;-70
2023/08/14 12:22:31;;;;;;;5.77;5.27;;;30.00;97.70;;;;;;5086970;28;20440;-71
2023/08/14 12:24:57;;;;;;;4.03;3.20;;;30.20;97.50;;;;;;5086203;28;20431;-72
2023/08/14 12:27:25;;;;;;;3.80;3.50;;;30.20;97.30;;;;;;5083165;28;20432;-71
2023/08/14 12:29:52;;;;;;;2.43;2.20;;;29.90;97.00;;;;;;5088933;28;20197;-71
2023/08/14 12:32:19;;;;;;;3.60;3.30;;;29.70;98.00;;;;;;5089899;28;20409;-71
2023/08/14 12:34:44;;;;;;;2.93;2.73;;;29.80;97.80;;;;;;5088864;28;20435;-70
2023/08/14 12:37:12;;;;;;;3.97;3.47;;;30.00;97.40;;;;;;5092780;28;20406;-71
2023/08/14 12:39:38;;;;;;;3.90;3.57;;;29.80;97.60;;;;;;5089063;28;20213;-71
2023/08/14 12:42:04;;;;;;;3.03;2.73;;;30.00;97.70;;;;;;5090088;28;20827;-70
2023/08/14 12:44:30;;;;;;;6.20;3.80;;;30.00;96.90;;;;;;5091290;28;20185;-71